Time;durP1;ratioP1;P1;durP2;ratioP2;P2;SDS_P1;SDS_P2;PMS_P1;PMS_P2;Temp;Humidity;BMP_temperature;BMP_pressure;BME280_temperature;BME280_humidity;BME280_pressure;Samples;Min_cycle;Max_cycle;Signal;HPM_P1;HPM_P2
2021/05/21 00:02:26;;;;;;;3.10;2.87;;;;;;;8.71;94.11;97933.13;4982637;28;20221;-68
2021/05/21 00:04:54;;;;;;;2.47;2.37;;;;;;;8.57;95.19;97928.41;4982885;28;20225;-69
2021/05/21 00:07:22;;;;;;;3.37;3.00;;;;;;;8.58;95.37;97927.44;4980828;28;20213;-68
2021/05/21 00:09:50;;;;;;;2.80;2.60;;;;;;;8.45;96.29;97933.06;4982004;28;20206;-69
2021/05/21 00:12:17;;;;;;;2.70;2.50;;;;;;;8.44;96.27;97926.97;4982840;28;20229;-68
2021/05/21 00:14:45;;;;;;;3.13;2.83;;;;;;;8.43;96.19;97917.41;4981010;28;20217;-68
2021/05/21 00:17:12;;;;;;;2.70;2.60;;;;;;;8.43;95.98;97933.25;4982818;28;20220;-66
2021/05/21 00:19:40;;;;;;;2.57;2.40;;;;;;;8.29;97.42;97936.38;4979083;28;20492;-68
2021/05/21 00:22:07;;;;;;;4.73;2.90;;;;;;;8.39;97.22;97924.78;4980043;28;20225;-68
2021/05/21 00:24:34;;;;;;;2.77;2.53;;;;;;;8.28;97.42;97919.75;4980711;28;20620;-69
2021/05/21 00:27:03;;;;;;;2.73;2.53;;;;;;;8.44;97.67;97912.94;4982780;28;20882;-68
2021/05/21 00:29:31;;;;;;;2.43;2.33;;;;;;;8.47;96.98;97912.63;4984986;28;20670;-69
2021/05/21 00:31:58;;;;;;;2.90;2.53;;;;;;;8.47;98.18;97910.81;4982935;28;20233;-69
2021/05/21 00:34:26;;;;;;;5.60;2.73;;;;;;;8.69;95.60;97901.59;4981547;28;20198;-69
2021/05/21 00:36:54;;;;;;;2.90;2.70;;;;;;;8.60;96.10;97888.50;4982231;28;20217;-68
2021/05/21 00:39:21;;;;;;;2.77;2.67;;;;;;;8.55;96.22;97888.97;4979179;28;20224;-69
2021/05/21 00:41:49;;;;;;;2.63;2.53;;;;;;;8.55;95.68;97886.31;4982291;28;20222;-69
2021/05/21 00:44:17;;;;;;;2.70;2.50;;;;;;;8.62;96.23;97878.59;4979562;28;20212;-69
2021/05/21 00:46:44;;;;;;;2.83;2.63;;;;;;;8.54;96.86;97863.53;4982729;28;20210;-69
2021/05/21 00:49:17;;;;;;;3.07;2.77;;;;;;;8.61;96.77;97864.56;4985482;28;20205;-67
2021/05/21 00:51:45;;;;;;;2.53;2.43;;;;;;;8.51;95.94;97872.59;4981790;28;20230;-69
2021/05/21 00:54:14;;;;;;;2.97;2.73;;;;;;;8.59;95.28;97861.25;4985774;28;20201;-66
2021/05/21 00:56:42;;;;;;;2.60;2.40;;;;;;;8.57;95.87;97852.66;4986036;28;20213;-69
2021/05/21 00:59:09;;;;;;;2.20;2.10;;;;;;;8.49;96.12;97847.28;4982045;28;20210;-69
2021/05/21 01:01:37;;;;;;;2.67;2.50;;;;;;;8.35;97.15;97849.50;4985163;28;20229;-69
2021/05/21 01:04:05;;;;;;;2.50;2.27;;;;;;;8.26;97.18;97842.50;4981607;28;20220;-69
2021/05/21 01:06:33;;;;;;;2.77;2.60;;;;;;;8.40;96.63;97836.66;4986153;28;20213;-69
2021/05/21 01:09:01;;;;;;;3.57;2.43;;;;;;;8.35;97.21;97832.84;4981656;28;20546;-69
2021/05/21 01:11:28;;;;;;;2.60;2.50;;;;;;;8.16;98.07;97828.56;4985483;28;20735;-69
2021/05/21 01:13:56;;;;;;;2.33;2.13;;;;;;;8.10;98.60;97828.16;4983951;28;20210;-69
2021/05/21 01:16:23;;;;;;;2.50;2.33;;;;;;;7.97;99.54;97835.66;4983818;28;20213;-69
2021/05/21 01:18:51;;;;;;;2.33;2.13;;;;;;;7.85;100.00;97818.41;4985266;28;20241;-69
2021/05/21 01:21:20;;;;;;;2.40;2.30;;;;;;;7.85;100.00;97813.94;4984796;28;20583;-69
2021/05/21 01:23:47;;;;;;;2.20;2.00;;;;;;;7.78;100.00;97815.53;4985440;28;20228;-67
2021/05/21 01:26:15;;;;;;;2.93;1.97;;;;;;;7.82;100.00;97817.72;4985005;28;20236;-68
2021/05/21 01:28:42;;;;;;;2.43;2.33;;;;;;;7.74;100.00;97817.63;4983221;28;20206;-69
2021/05/21 01:31:10;;;;;;;2.20;2.10;;;;;;;7.75;100.00;97803.44;4983694;28;20221;-70
2021/05/21 01:33:37;;;;;;;2.10;2.00;;;;;;;7.79;100.00;97814.53;4982851;28;20217;-69
2021/05/21 01:36:05;;;;;;;2.47;2.27;;;;;;;7.76;100.00;97807.75;4982564;28;20210;-69
2021/05/21 01:38:33;;;;;;;2.43;2.23;;;;;;;7.78;100.00;97810.25;4982467;28;20224;-69
2021/05/21 01:41:01;;;;;;;2.30;2.20;;;;;;;7.97;100.00;97796.91;4984048;28;20750;-68
2021/05/21 01:43:29;;;;;;;2.17;2.07;;;;;;;7.79;100.00;97791.66;4983966;28;20221;-68
2021/05/21 01:45:57;;;;;;;2.80;2.60;;;;;;;7.66;100.00;97797.28;4981794;28;20209;-69
2021/05/21 01:48:25;;;;;;;2.60;2.40;;;;;;;7.74;100.00;97793.88;4984388;28;20205;-69
2021/05/21 01:50:53;;;;;;;2.73;2.53;;;;;;;7.62;100.00;97787.19;4984783;28;20559;-69
2021/05/21 01:53:20;;;;;;;3.00;2.53;;;;;;;7.52;100.00;97792.50;4983801;28;20256;-70
2021/05/21 01:55:51;;;;;;;2.47;2.37;;;;;;;7.61;100.00;97796.06;4987405;28;20216;-69
2021/05/21 01:58:19;;;;;;;2.93;2.50;;;;;;;7.58;100.00;97793.75;4983018;28;20202;-69
2021/05/21 02:00:46;;;;;;;2.27;2.17;;;;;;;7.46;100.00;97788.69;4984712;28;20224;-68
2021/05/21 02:03:14;;;;;;;2.73;2.57;;;;;;;7.51;100.00;97794.34;4983738;28;20222;-68
2021/05/21 02:05:41;;;;;;;2.73;2.63;;;;;;;7.55;100.00;97792.22;4980955;28;20555;-69
2021/05/21 02:08:09;;;;;;;2.60;2.50;;;;;;;7.58;100.00;97793.75;4982628;28;20206;-67
2021/05/21 02:10:36;;;;;;;2.80;2.60;;;;;;;7.53;100.00;97783.63;4983845;28;20206;-69
2021/05/21 02:13:04;;;;;;;2.97;2.50;;;;;;;7.62;100.00;97785.38;4984716;28;20248;-69
2021/05/21 02:15:32;;;;;;;2.27;2.17;;;;;;;7.64;100.00;97779.94;4984470;28;20237;-69
2021/05/21 02:18:00;;;;;;;2.00;1.90;;;;;;;7.60;100.00;97773.31;4984419;28;20214;-69
2021/05/21 02:20:27;;;;;;;2.47;2.27;;;;;;;7.76;100.00;97765.53;4983551;28;20208;-69
2021/05/21 02:22:55;;;;;;;2.40;2.20;;;;;;;7.85;100.00;97758.53;4981916;28;20413;-69
2021/05/21 02:25:22;;;;;;;2.87;2.43;;;;;;;7.92;100.00;97749.03;4978561;28;20670;-69
2021/05/21 02:27:51;;;;;;;2.50;2.40;;;;;;;7.87;100.00;97745.19;4984405;28;20209;-69
2021/05/21 02:30:19;;;;;;;3.47;2.23;;;;;;;7.94;100.00;97751.53;4984089;28;20422;-68
2021/05/21 02:32:47;;;;;;;2.33;2.23;;;;;;;7.92;99.85;97743.75;4983289;28;20252;-69
2021/05/21 02:35:15;;;;;;;2.53;2.33;;;;;;;7.79;100.00;97744.16;4983658;28;20212;-67
2021/05/21 02:37:42;;;;;;;2.30;2.20;;;;;;;7.72;100.00;97742.28;4983366;28;20700;-67
2021/05/21 02:40:11;;;;;;;2.27;2.17;;;;;;;7.66;100.00;97734.00;4981659;28;20713;-69
2021/05/21 02:42:38;;;;;;;2.37;2.27;;;;;;;7.64;100.00;97735.94;4979339;28;20725;-69
2021/05/21 02:45:07;;;;;;;2.10;2.00;;;;;;;7.63;100.00;97747.47;4981752;28;20686;-69
2021/05/21 02:47:36;;;;;;;2.43;2.33;;;;;;;7.75;100.00;97740.13;4982580;28;20206;-68
2021/05/21 02:50:05;;;;;;;2.73;2.00;;;;;;;7.80;100.00;97742.34;4981696;28;20213;-67
2021/05/21 02:52:33;;;;;;;2.37;2.27;;;;;;;7.96;99.81;97731.09;4982602;28;20730;-69
2021/05/21 02:55:00;;;;;;;2.20;2.10;;;;;;;8.14;98.74;97725.75;4982066;28;20478;-69
2021/05/21 02:57:28;;;;;;;2.20;2.10;;;;;;;8.06;98.81;97713.34;4983260;28;20208;-69
2021/05/21 02:59:56;;;;;;;2.53;2.43;;;;;;;8.04;98.80;97709.22;4982974;28;20216;-69
2021/05/21 03:02:23;;;;;;;2.13;2.03;;;;;;;8.11;97.96;97705.78;4981465;28;20234;-69
2021/05/21 03:04:53;;;;;;;2.27;2.17;;;;;;;8.20;97.44;97717.22;4982993;28;20305;-69
2021/05/21 03:07:21;;;;;;;2.50;2.30;;;;;;;8.14;97.72;97711.72;4983016;28;20694;-69
2021/05/21 03:09:49;;;;;;;2.30;2.20;;;;;;;8.21;96.87;97712.78;4983422;28;20229;-69
2021/05/21 03:12:16;;;;;;;2.57;2.40;;;;;;;8.30;95.53;97711.00;4983201;28;20709;-69
2021/05/21 03:14:44;;;;;;;2.40;2.30;;;;;;;8.32;94.86;97703.75;4983223;28;20205;-67
2021/05/21 03:17:11;;;;;;;2.30;2.20;;;;;;;8.37;95.04;97704.94;4981526;28;20728;-69
2021/05/21 03:19:39;;;;;;;1.90;1.80;;;;;;;8.32;93.98;97704.59;4983099;28;20216;-69
2021/05/21 03:22:07;;;;;;;2.50;2.23;;;;;;;8.35;94.77;97704.28;4983146;28;20228;-69
2021/05/21 03:24:35;;;;;;;2.20;2.10;;;;;;;8.39;94.34;97707.44;4983512;28;20248;-69
2021/05/21 03:27:03;;;;;;;2.00;1.90;;;;;;;8.32;94.63;97699.31;4982660;28;20533;-69
2021/05/21 03:29:30;;;;;;;2.53;2.30;;;;;;;8.27;94.82;97696.31;4982379;28;20201;-68
2021/05/21 03:31:58;;;;;;;4.83;2.63;;;;;;;8.34;94.31;97694.69;4980671;28;20242;-69
2021/05/21 03:34:25;;;;;;;2.30;2.20;;;;;;;8.33;94.36;97689.56;4982586;28;20679;-69
2021/05/21 03:36:53;;;;;;;3.07;2.30;;;;;;;8.44;93.38;97688.47;4982821;28;20610;-67
2021/05/21 03:39:21;;;;;;;2.30;2.00;;;;;;;8.39;92.91;97689.75;4983136;28;20216;-68
2021/05/21 03:41:48;;;;;;;2.80;2.23;;;;;;;8.50;93.16;97687.84;4982344;28;20233;-67
2021/05/21 03:44:16;;;;;;;2.47;2.30;;;;;;;8.56;92.23;97691.69;4979670;28;20701;-69
2021/05/21 03:46:44;;;;;;;2.10;2.00;;;;;;;8.56;92.18;97691.69;4975977;28;20205;-71
2021/05/21 03:49:12;;;;;;;2.33;2.23;;;;;;;8.54;92.46;97687.38;4981136;28;20501;-72
2021/05/21 03:51:40;;;;;;;2.27;2.17;;;;;;;8.63;92.24;97676.84;4978200;28;20230;-70
2021/05/21 03:54:08;;;;;;;2.13;2.03;;;;;;;8.67;90.63;97676.38;4981197;28;20229;-72
2021/05/21 03:56:36;;;;;;;2.20;2.10;;;;;;;8.63;91.19;97677.69;4981184;28;20204;-71
2021/05/21 03:59:04;;;;;;;2.57;2.33;;;;;;;8.76;90.16;97674.59;4981088;28;20293;-70
2021/05/21 04:01:32;;;;;;;2.00;1.90;;;;;;;8.73;90.73;97674.09;4979150;28;20633;-70
2021/05/21 04:04:06;;;;;;;1.67;1.67;;;;;;;8.72;90.26;97661.88;4979868;28;20216;-71
2021/05/21 04:06:37;;;;;;;2.10;2.00;;;;;;;8.88;89.22;97663.72;4980858;28;20208;-72
2021/05/21 04:09:06;;;;;;;1.80;1.70;;;;;;;8.81;89.73;97661.75;4981001;28;20210;-72
2021/05/21 04:11:34;;;;;;;2.10;2.00;;;;;;;8.78;89.46;97656.78;4978069;28;20225;-69
2021/05/21 04:14:03;;;;;;;2.57;2.10;;;;;;;8.97;88.95;97657.47;4983258;28;20237;-72
2021/05/21 04:16:31;;;;;;;2.10;2.00;;;;;;;9.06;88.38;97655.69;4982820;28;20205;-75
2021/05/21 04:18:59;;;;;;;2.00;1.90;;;;;;;9.05;88.38;97648.75;4982131;28;20578;-70
2021/05/21 04:21:31;;;;;;;2.03;1.93;;;;;;;8.92;89.16;97644.75;4982435;28;20825;-71
2021/05/21 04:23:59;;;;;;;1.90;1.80;;;;;;;9.07;87.95;97641.47;4985805;28;20590;-72
2021/05/21 04:26:27;;;;;;;2.17;2.00;;;;;;;9.10;87.13;97638.50;4988831;28;20601;-71
2021/05/21 04:28:54;;;;;;;2.00;1.90;;;;;;;9.04;88.13;97644.44;4982952;28;20216;-71
2021/05/21 04:31:22;;;;;;;2.77;2.23;;;;;;;9.01;87.61;97642.94;4984563;28;20332;-71
2021/05/21 04:33:51;;;;;;;1.93;1.83;;;;;;;9.14;87.50;97639.00;4983657;28;20230;-71
2021/05/21 04:36:18;;;;;;;1.90;1.80;;;;;;;9.27;86.29;97640.16;4984358;28;20908;-71
2021/05/21 04:38:46;;;;;;;4.10;1.97;;;;;;;9.24;86.63;97640.50;4985184;28;20670;-68
2021/05/21 04:41:13;;;;;;;2.00;1.90;;;;;;;9.42;85.54;97636.88;4983799;28;20446;-66
2021/05/21 04:43:41;;;;;;;2.10;1.90;;;;;;;9.49;84.74;97631.75;4985525;28;20213;-68
2021/05/21 04:46:08;;;;;;;2.00;1.90;;;;;;;9.43;85.12;97629.75;4985862;28;20601;-67
2021/05/21 04:48:37;;;;;;;2.20;2.10;;;;;;;9.47;85.96;97631.06;4983304;28;20213;-67
2021/05/21 04:51:05;;;;;;;2.20;2.10;;;;;;;9.75;83.76;97630.72;4983180;28;20208;-67
2021/05/21 04:53:32;;;;;;;3.43;1.97;;;;;;;9.79;83.82;97630.22;4983343;28;20230;-68
2021/05/21 04:56:00;;;;;;;2.07;1.87;;;;;;;9.93;82.08;97633.16;4985362;28;20243;-68
2021/05/21 04:58:27;;;;;;;2.13;2.03;;;;;;;9.96;82.26;97630.19;4983364;28;20593;-68
2021/05/21 05:00:55;;;;;;;2.40;2.30;;;;;;;10.06;82.22;97619.41;4984641;28;20228;-67
2021/05/21 05:03:22;;;;;;;3.50;2.30;;;;;;;10.10;81.64;97628.66;4983861;28;20222;-68
2021/05/21 05:05:51;;;;;;;1.97;1.70;;;;;;;10.18;81.77;97619.88;4985572;28;20326;-71
2021/05/21 05:08:18;;;;;;;2.27;2.17;;;;;;;10.20;81.64;97625.84;4983656;28;20217;-71
2021/05/21 05:10:47;;;;;;;1.97;1.87;;;;;;;10.48;79.08;97618.28;4984429;28;20225;-71
2021/05/21 05:13:15;;;;;;;1.60;1.60;;;;;;;10.59;78.61;97610.94;4983144;28;20580;-71
2021/05/21 05:15:43;;;;;;;2.00;1.90;;;;;;;10.42;78.76;97622.47;4983595;28;20210;-71
2021/05/21 05:18:11;;;;;;;4.03;2.30;;;;;;;10.61;78.78;97611.63;4985230;28;20205;-71
2021/05/21 05:20:39;;;;;;;1.93;1.83;;;;;;;10.73;76.67;97617.34;4983527;28;20765;-72
2021/05/21 05:23:10;;;;;;;1.50;1.47;;;;;;;11.03;76.12;97607.72;4984858;28;20221;-71
2021/05/21 05:25:40;;;;;;;1.77;1.77;;;;;;;10.99;74.47;97612.56;4984153;28;20206;-70
2021/05/21 05:28:07;;;;;;;1.83;1.73;;;;;;;11.05;75.45;97618.97;4983391;28;20206;-70
2021/05/21 05:30:35;;;;;;;1.70;1.63;;;;;;;10.95;76.13;97613.91;4983852;28;20252;-70
2021/05/21 05:33:02;;;;;;;1.80;1.70;;;;;;;11.11;74.59;97612.13;4982047;28;20241;-71
2021/05/21 05:35:30;;;;;;;2.50;1.70;;;;;;;11.38;73.52;97607.28;4984378;28;20206;-70
2021/05/21 05:37:57;;;;;;;1.50;1.40;;;;;;;11.27;73.54;97601.41;4983102;28;20213;-71
2021/05/21 05:40:27;;;;;;;1.80;1.70;;;;;;;11.41;72.68;97597.16;4984635;28;20222;-71
2021/05/21 05:42:54;;;;;;;1.60;1.50;;;;;;;11.52;72.64;97593.22;4982099;28;20217;-71
2021/05/21 05:45:22;;;;;;;1.47;1.47;;;;;;;11.68;72.16;97602.06;4983671;28;20453;-71
2021/05/21 05:47:49;;;;;;;2.00;1.83;;;;;;;11.63;72.77;97593.81;4982328;28;20214;-71
2021/05/21 05:50:17;;;;;;;1.27;1.27;;;;;;;11.79;72.57;97583.03;4982588;28;20213;-72
2021/05/21 05:52:44;;;;;;;2.07;1.87;;;;;;;11.94;71.86;97587.53;4982927;28;20229;-71
2021/05/21 05:55:12;;;;;;;1.57;1.47;;;;;;;12.27;68.80;97585.34;4983357;28;20256;-71
2021/05/21 05:57:41;;;;;;;4.00;1.77;;;;;;;12.13;70.24;97589.66;4983821;28;20610;-72
2021/05/21 06:00:09;;;;;;;1.90;1.80;;;;;;;12.23;70.40;97580.56;4983114;28;20588;-71
2021/05/21 06:02:37;;;;;;;1.33;1.33;;;;;;;12.44;69.38;97575.34;4983195;28;20229;-72
2021/05/21 06:05:06;;;;;;;2.13;1.97;;;;;;;12.77;67.16;97568.72;4983421;28;20672;-72
2021/05/21 06:07:33;;;;;;;1.30;1.20;;;;;;;12.56;67.05;97578.34;4982885;28;20216;-71
2021/05/21 06:10:01;;;;;;;1.47;1.47;;;;;;;12.58;67.88;97564.84;4983003;28;20209;-70
2021/05/21 06:12:29;;;;;;;2.73;1.57;;;;;;;12.77;66.66;97558.09;4984116;28;20334;-71
2021/05/21 06:14:57;;;;;;;1.60;1.50;;;;;;;13.05;66.51;97562.69;4983312;28;20225;-69
2021/05/21 06:17:25;;;;;;;1.60;1.50;;;;;;;13.03;66.59;97562.84;4983575;28;20206;-69
2021/05/21 06:19:52;;;;;;;1.67;1.53;;;;;;;13.15;63.92;97557.84;4984730;28;20213;-69
2021/05/21 06:22:20;;;;;;;1.30;1.30;;;;;;;13.01;64.02;97556.09;4980468;28;20233;-69
2021/05/21 06:24:50;;;;;;;2.30;1.70;;;;;;;12.94;64.39;97542.72;4984142;28;20555;-72
2021/05/21 06:27:24;;;;;;;2.27;1.60;;;;;;;13.21;64.81;97544.78;4980801;28;20582;-71
2021/05/21 06:29:51;;;;;;;1.53;1.43;;;;;;;13.32;64.08;97549.59;4984508;28;20197;-71
2021/05/21 06:32:20;;;;;;;1.70;1.60;;;;;;;13.50;62.22;97538.53;4983795;28;20601;-72
2021/05/21 06:34:47;;;;;;;1.20;1.20;;;;;;;13.28;64.06;97532.38;4981751;28;20225;-71
2021/05/21 06:37:24;;;;;;;1.30;1.30;;;;;;;13.38;63.03;97532.03;4980857;28;20214;-72
2021/05/21 06:40:09;;;;;;;4.00;1.57;;;;;;;13.51;62.66;97526.84;4982760;28;20213;-72
2021/05/21 06:42:37;;;;;;;1.40;1.20;;;;;;;13.55;62.24;97525.44;4983489;28;20646;-69
2021/05/21 06:45:06;;;;;;;3.47;1.30;;;;;;;13.67;60.68;97520.41;4982397;28;20205;-71
2021/05/21 06:47:34;;;;;;;2.87;1.47;;;;;;;13.52;60.50;97509.03;4982443;28;20489;-71
2021/05/21 06:50:02;;;;;;;1.20;1.10;;;;;;;13.71;60.45;97511.00;4982144;28;20221;-70
2021/05/21 06:52:30;;;;;;;1.60;1.13;;;;;;;13.73;60.56;97513.44;4982788;28;20229;-71
2021/05/21 06:54:57;;;;;;;1.23;1.23;;;;;;;14.01;60.47;97508.06;4982156;28;20265;-70
2021/05/21 06:57:25;;;;;;;1.20;1.10;;;;;;;14.36;59.85;97493.84;4981446;28;20213;-73
2021/05/21 06:59:52;;;;;;;1.23;1.20;;;;;;;14.22;61.19;97497.50;4981669;28;20201;-70
2021/05/21 07:02:20;;;;;;;3.03;1.23;;;;;;;14.37;59.79;97492.84;4982385;28;20271;-69
2021/05/21 07:04:48;;;;;;;1.63;1.13;;;;;;;14.62;60.19;97492.28;4982129;28;20708;-69
2021/05/21 07:07:16;;;;;;;12.73;2.17;;;;;;;14.72;58.80;97484.75;4982202;28;20210;-68
2021/05/21 07:09:44;;;;;;;2.07;1.43;;;;;;;14.62;59.79;97486.97;4982902;28;20773;-71
2021/05/21 07:12:11;;;;;;;2.50;1.30;;;;;;;14.74;59.80;97485.34;4980904;28;20492;-70
2021/05/21 07:14:39;;;;;;;1.70;1.60;;;;;;;14.64;60.27;97481.41;4981987;28;20252;-72
2021/05/21 07:17:06;;;;;;;2.23;1.50;;;;;;;14.57;59.28;97470.72;4981073;28;20206;-71
2021/05/21 07:19:34;;;;;;;1.70;1.57;;;;;;;14.80;58.49;97474.88;4982370;28;20217;-72
2021/05/21 07:22:07;;;;;;;1.57;1.37;;;;;;;14.81;59.75;97469.38;4982082;28;20236;-70
2021/05/21 07:24:34;;;;;;;2.97;1.47;;;;;;;15.14;57.80;97470.38;4981327;28;20202;-70
2021/05/21 07:27:02;;;;;;;2.03;1.40;;;;;;;14.92;57.99;97470.59;4980115;28;20209;-69
2021/05/21 07:29:29;;;;;;;2.63;1.30;;;;;;;14.79;56.94;97483.91;4981178;28;20341;-72
2021/05/21 07:31:57;;;;;;;1.70;1.60;;;;;;;14.90;56.80;97470.81;4982144;28;20613;-71
2021/05/21 07:34:24;;;;;;;1.30;1.20;;;;;;;15.07;56.45;97469.56;4979775;28;20229;-71
2021/05/21 07:36:51;;;;;;;1.40;1.30;;;;;;;14.95;56.92;97472.84;4980787;28;20210;-72
2021/05/21 07:39:20;;;;;;;1.23;1.23;;;;;;;15.01;56.59;97469.38;4979938;28;20217;-70
2021/05/21 07:41:47;;;;;;;1.10;1.10;;;;;;;14.89;56.48;97471.00;4981762;28;20230;-71
2021/05/21 07:44:16;;;;;;;1.10;0.97;;;;;;;14.81;56.56;97465.88;4980117;28;20578;-69
2021/05/21 07:46:44;;;;;;;2.47;1.23;;;;;;;14.97;56.72;97462.81;4979709;28;20206;-72
2021/05/21 07:49:11;;;;;;;2.73;1.53;;;;;;;14.88;56.85;97459.50;4976370;28;20240;-69
2021/05/21 07:51:40;;;;;;;2.93;1.30;;;;;;;14.78;56.67;97458.28;4974452;28;20230;-72
2021/05/21 07:54:07;;;;;;;1.40;1.23;;;;;;;14.93;56.80;97464.22;4975456;28;20498;-71
2021/05/21 07:56:35;;;;;;;2.33;1.30;;;;;;;14.84;57.15;97460.13;4976711;28;20209;-70
2021/05/21 07:59:04;;;;;;;1.23;1.23;;;;;;;14.89;57.38;97465.66;4978310;28;20693;-71
2021/05/21 08:01:32;;;;;;;2.50;1.40;;;;;;;14.89;57.80;97461.16;4977135;28;20238;-71
2021/05/21 08:03:59;;;;;;;1.13;1.13;;;;;;;15.07;57.79;97464.22;4976785;28;20737;-72
2021/05/21 08:06:26;;;;;;;2.50;1.50;;;;;;;15.04;57.40;97460.94;4977662;28;20205;-71
2021/05/21 08:08:54;;;;;;;3.23;1.20;;;;;;;15.17;57.09;97472.63;4977617;28;20244;-72
2021/05/21 08:11:21;;;;;;;5.00;1.57;;;;;;;15.41;56.01;97465.03;4978808;28;20205;-72
2021/05/21 08:13:50;;;;;;;2.53;1.50;;;;;;;15.25;55.70;97472.41;4977731;28;20241;-72
2021/05/21 08:16:17;;;;;;;1.23;1.20;;;;;;;15.29;56.79;97470.97;4977232;28;20205;-72
2021/05/21 08:18:44;;;;;;;2.60;1.40;;;;;;;15.54;56.05;97456.97;4976937;28;20201;-69
2021/05/21 08:21:12;;;;;;;2.83;1.40;;;;;;;15.46;56.41;97454.53;4977594;28;20218;-70
2021/05/21 08:23:39;;;;;;;1.00;1.00;;;;;;;15.71;55.75;97464.53;4977223;28;20209;-71
2021/05/21 08:26:07;;;;;;;1.17;1.17;;;;;;;15.85;56.01;97455.44;4977745;28;20213;-71
2021/05/21 08:28:35;;;;;;;1.70;1.60;;;;;;;15.89;54.86;97456.69;4977154;28;20217;-71
2021/05/21 08:31:04;;;;;;;1.73;1.63;;;;;;;15.91;55.32;97457.31;4976523;28;20686;-72
2021/05/21 08:33:32;;;;;;;1.63;1.53;;;;;;;15.73;56.13;97449.13;4976777;28;20256;-72
2021/05/21 08:35:59;;;;;;;2.57;2.37;;;;;;;15.91;54.47;97451.97;4975910;28;20209;-70
2021/05/21 08:38:27;;;;;;;1.27;1.17;;;;;;;15.75;55.41;97444.41;4977083;28;20209;-70
2021/05/21 08:40:55;;;;;;;2.83;1.30;;;;;;;15.80;54.73;97449.94;4976757;28;20674;-70
2021/05/21 08:43:24;;;;;;;1.00;1.00;;;;;;;15.63;55.69;97442.34;4977201;28;20233;-70
2021/05/21 08:45:51;;;;;;;1.30;1.30;;;;;;;15.42;55.88;97442.63;4976999;28;20201;-69
2021/05/21 08:48:19;;;;;;;1.20;1.10;;;;;;;15.37;56.52;97445.91;4976907;28;20299;-69
2021/05/21 08:50:50;;;;;;;3.83;1.73;;;;;;;15.59;55.11;97440.34;4977563;28;20205;-68
2021/05/21 08:53:17;;;;;;;1.10;1.10;;;;;;;15.39;56.08;97448.41;4976963;28;20222;-70
2021/05/21 08:55:45;;;;;;;1.20;1.20;;;;;;;15.46;56.05;97436.66;4976723;28;20257;-70
2021/05/21 08:58:13;;;;;;;1.87;1.30;;;;;;;15.39;56.26;97440.38;4976972;28;20247;-68
2021/05/21 09:00:41;;;;;;;1.43;1.20;;;;;;;15.51;56.40;97441.38;4975818;28;20706;-69
2021/05/21 09:03:20;;;;;;;1.23;1.20;;;;;;;15.47;56.86;97434.81;4976984;28;20288;-70
2021/05/21 09:06:13;;;;;;;1.00;1.00;;;;;;;15.62;55.72;97437.25;4977390;28;20206;-70
2021/05/21 09:08:43;;;;;;;2.53;1.10;;;;;;;15.85;55.18;97428.75;4975105;28;20204;-71
2021/05/21 09:11:28;;;;;;;1.03;1.03;;;;;;;16.10;54.16;97417.34;4976729;28;20210;-68
2021/05/21 09:14:01;;;;;;;1.30;1.20;;;;;;;15.99;53.69;97418.00;4976300;28;20205;-70
2021/05/21 09:16:30;;;;;;;1.73;1.63;;;;;;;15.99;53.40;97418.84;4977555;28;20224;-69
2021/05/21 09:19:06;;;;;;;1.23;1.17;;;;;;;15.89;52.75;97421.97;4976661;28;20492;-71
2021/05/21 09:21:55;;;;;;;1.50;1.07;;;;;;;15.74;53.32;97405.38;4980814;28;20229;-71
2021/05/21 09:24:25;;;;;;;1.17;1.10;;;;;;;15.82;53.72;97410.47;4975891;28;20598;-70
2021/05/21 09:26:54;;;;;;;1.33;0.90;;;;;;;16.18;52.39;97405.56;4982697;28;20205;-70
2021/05/21 09:29:44;;;;;;;2.33;1.20;;;;;;;16.12;51.35;97403.75;4985215;28;20586;-72
2021/05/21 09:32:28;;;;;;;1.20;1.10;;;;;;;16.03;52.33;97405.84;4982878;28;20225;-70
2021/05/21 09:35:10;;;;;;;1.87;1.73;;;;;;;15.98;52.95;97408.34;4983019;28;20333;-70
2021/05/21 09:37:43;;;;;;;2.10;1.20;;;;;;;16.16;53.05;97408.47;4982491;28;20210;-72
2021/05/21 09:40:16;;;;;;;1.30;1.20;;;;;;;16.08;52.62;97408.69;4981099;28;20555;-70
2021/05/21 09:42:48;;;;;;;1.20;1.10;;;;;;;16.14;51.62;97404.38;4982962;28;20470;-70
2021/05/21 09:45:18;;;;;;;1.30;1.20;;;;;;;16.11;51.43;97405.63;4983680;28;20210;-68
2021/05/21 09:47:48;;;;;;;1.03;1.03;;;;;;;16.28;51.51;97411.25;4982213;28;20205;-72
2021/05/21 09:50:16;;;;;;;1.33;1.23;;;;;;;16.26;52.46;97412.53;4980700;28;20210;-70
2021/05/21 09:52:45;;;;;;;1.17;1.07;;;;;;;16.22;51.26;97409.44;4983637;28;20621;-70
2021/05/21 09:55:12;;;;;;;1.00;1.00;;;;;;;16.17;50.02;97415.47;4980528;28;20469;-68
2021/05/21 09:57:41;;;;;;;1.17;1.10;;;;;;;15.91;49.89;97411.06;4980131;28;20210;-71
2021/05/21 10:00:10;;;;;;;1.10;1.10;;;;;;;15.84;51.77;97420.91;4982765;28;20233;-73
2021/05/21 10:02:38;;;;;;;1.20;1.10;;;;;;;15.79;52.85;97421.56;4980365;28;20226;-72
2021/05/21 10:05:07;;;;;;;1.33;1.10;;;;;;;15.83;51.65;97414.78;4980133;28;20210;-71
2021/05/21 10:07:36;;;;;;;2.43;1.60;;;;;;;15.95;53.20;97414.97;4981389;28;20227;-72
2021/05/21 10:10:04;;;;;;;1.40;1.30;;;;;;;16.16;52.03;97410.31;4980802;28;20752;-70
2021/05/21 10:12:31;;;;;;;0.90;0.90;;;;;;;16.17;50.80;97414.63;4982317;28;20313;-72
2021/05/21 10:14:59;;;;;;;1.23;1.10;;;;;;;15.91;50.67;97405.72;4981893;28;20237;-72
2021/05/21 10:17:28;;;;;;;3.43;1.43;;;;;;;15.90;51.57;97422.78;4980993;28;20211;-71
2021/05/21 10:19:56;;;;;;;1.20;1.10;;;;;;;16.01;51.65;97416.78;4982434;28;20201;-72
2021/05/21 10:22:26;;;;;;;2.17;1.37;;;;;;;15.91;51.94;97411.88;4982920;28;20256;-70
2021/05/21 10:24:59;;;;;;;1.40;1.30;;;;;;;15.97;51.80;97404.03;4981843;28;20198;-72
2021/05/21 10:27:31;;;;;;;1.70;1.23;;;;;;;16.06;51.16;97400.91;4980822;28;20209;-72
2021/05/21 10:30:03;;;;;;;2.93;1.03;;;;;;;15.96;51.60;97397.06;4983289;28;20735;-71
2021/05/21 10:32:36;;;;;;;0.90;0.90;;;;;;;15.95;52.81;97401.59;4983502;28;20225;-72
2021/05/21 10:35:17;;;;;;;3.47;0.90;;;;;;;16.05;51.78;97403.78;4982413;28;20592;-72
2021/05/21 10:37:47;;;;;;;1.40;1.30;;;;;;;16.08;50.90;97398.00;4980164;28;20317;-71
2021/05/21 10:40:22;;;;;;;1.20;1.20;;;;;;;16.00;52.16;97392.94;4982172;28;20214;-70
2021/05/21 10:42:51;;;;;;;1.90;1.27;;;;;;;15.71;52.65;97401.25;4983157;28;20229;-71
2021/05/21 10:45:20;;;;;;;1.77;1.13;;;;;;;15.63;52.82;97396.16;4979771;28;20213;-72
2021/05/21 10:47:57;;;;;;;0.83;0.83;;;;;;;15.82;53.55;97406.94;4981846;28;20205;-72
2021/05/21 10:50:33;;;;;;;2.30;1.10;;;;;;;15.62;54.08;97408.66;4980900;28;20210;-72
2021/05/21 10:53:03;;;;;;;8.27;1.30;;;;;;;15.53;53.80;97407.28;4983421;28;20221;-72
2021/05/21 10:55:52;;;;;;;2.10;1.37;;;;;;;15.87;53.05;97409.81;4978300;28;20265;-70
2021/05/21 10:58:27;;;;;;;1.80;1.13;;;;;;;15.65;53.06;97411.94;4978649;28;20209;-72
2021/05/21 11:01:19;;;;;;;1.50;1.40;;;;;;;15.54;54.00;97406.25;4983282;28;20213;-72
2021/05/21 11:04:07;;;;;;;1.47;1.30;;;;;;;15.39;54.24;97405.69;4981076;28;20202;-71
2021/05/21 11:06:56;;;;;;;2.70;1.30;;;;;;;15.29;54.96;97401.56;4981896;28;20308;-72
2021/05/21 11:09:26;;;;;;;2.10;1.23;;;;;;;15.36;55.03;97409.56;4977213;28;20633;-72
2021/05/21 11:12:00;;;;;;;1.00;1.00;;;;;;;15.22;55.96;97400.78;4979888;28;20457;-72
2021/05/21 11:14:33;;;;;;;1.67;1.57;;;;;;;15.24;56.86;97395.25;4979945;28;20201;-71
2021/05/21 11:17:11;;;;;;;1.30;1.20;;;;;;;15.39;58.22;97392.34;4979062;28;20240;-72
2021/05/21 11:19:45;;;;;;;0.97;0.97;;;;;;;15.27;56.86;97400.16;4981722;28;20689;-72
2021/05/21 11:22:18;;;;;;;2.03;1.50;;;;;;;15.05;57.27;97401.22;4982501;28;20221;-69
2021/05/21 11:24:47;;;;;;;2.23;1.03;;;;;;;14.86;60.06;97396.72;4982792;28;20209;-72
2021/05/21 11:27:15;;;;;;;1.60;1.43;;;;;;;14.81;60.23;97399.19;4979397;28;20318;-70
2021/05/21 11:29:45;;;;;;;2.07;1.00;;;;;;;14.87;60.63;97409.84;4982258;28;20217;-72
2021/05/21 11:32:13;;;;;;;1.80;1.30;;;;;;;15.05;61.51;97403.06;4983140;28;20252;-69
2021/05/21 11:34:41;;;;;;;0.93;0.93;;;;;;;15.10;59.27;97397.09;4981742;28;20276;-72
2021/05/21 11:37:08;;;;;;;1.30;1.20;;;;;;;15.38;58.45;97396.84;4983382;28;20240;-71
2021/05/21 11:39:38;;;;;;;1.00;1.00;;;;;;;15.77;59.53;97394.25;4981981;28;20221;-69
2021/05/21 11:42:07;;;;;;;3.10;1.10;;;;;;;15.77;57.89;97396.94;4980754;28;20218;-71
2021/05/21 11:44:36;;;;;;;1.77;1.40;;;;;;;15.78;57.38;97391.34;4982736;28;20213;-72
2021/05/21 11:47:05;;;;;;;1.20;1.13;;;;;;;16.05;58.36;97385.91;4980802;28;20229;-70